sensor_id;sensor_type;location;lat;lon;timestamp;P1;durP1;ratioP1;P2;durP2;ratioP2
18194;SDS011;9223;50.988;3.162;2023-11-21T00:00:47;5.75;;;4.55;;
18194;SDS011;9223;50.988;3.162;2023-11-21T00:06:52;8.35;;;4.60;;
18194;SDS011;9223;50.988;3.162;2023-11-21T00:12:55;10.32;;;4.80;;
18194;SDS011;9223;50.988;3.162;2023-11-21T00:18:59;8.13;;;4.45;;
18194;SDS011;9223;50.988;3.162;2023-11-21T00:25:04;8.20;;;4.50;;
18194;SDS011;9223;50.988;3.162;2023-11-21T00:31:10;6.78;;;4.18;;
18194;SDS011;9223;50.988;3.162;2023-11-21T00:37:15;6.60;;;4.38;;
18194;SDS011;9223;50.988;3.162;2023-11-21T00:43:20;6.90;;;4.22;;
18194;SDS011;9223;50.988;3.162;2023-11-21T00:49:23;8.70;;;4.22;;
18194;SDS011;9223;50.988;3.162;2023-11-21T00:55:27;8.43;;;4.28;;
18194;SDS011;9223;50.988;3.162;2023-11-21T01:01:32;7.68;;;3.90;;
18194;SDS011;9223;50.988;3.162;2023-11-21T01:07:36;6.82;;;4.45;;
18194;SDS011;9223;50.988;3.162;2023-11-21T01:13:40;8.82;;;4.45;;
18194;SDS011;9223;50.988;3.162;2023-11-21T01:19:45;6.90;;;4.32;;
18194;SDS011;9223;50.988;3.162;2023-11-21T01:25:49;7.97;;;4.70;;
18194;SDS011;9223;50.988;3.162;2023-11-21T01:31:53;8.40;;;4.63;;
18194;SDS011;9223;50.988;3.162;2023-11-21T01:37:58;6.43;;;4.50;;
18194;SDS011;9223;50.988;3.162;2023-11-21T01:44:01;12.02;;;4.75;;
18194;SDS011;9223;50.988;3.162;2023-11-21T01:50:08;8.23;;;4.93;;
18194;SDS011;9223;50.988;3.162;2023-11-21T01:56:14;8.77;;;4.97;;
18194;SDS011;9223;50.988;3.162;2023-11-21T02:02:18;9.55;;;4.68;;
18194;SDS011;9223;50.988;3.162;2023-11-21T02:08:22;7.10;;;5.03;;
18194;SDS011;9223;50.988;3.162;2023-11-21T02:14:27;7.82;;;5.00;;
18194;SDS011;9223;50.988;3.162;2023-11-21T02:20:32;9.40;;;4.72;;
18194;SDS011;9223;50.988;3.162;2023-11-21T02:26:38;6.90;;;4.93;;
18194;SDS011;9223;50.988;3.162;2023-11-21T02:32:42;7.95;;;4.55;;
18194;SDS011;9223;50.988;3.162;2023-11-21T02:38:49;7.25;;;4.63;;
18194;SDS011;9223;50.988;3.162;2023-11-21T02:44:54;8.73;;;4.70;;
18194;SDS011;9223;50.988;3.162;2023-11-21T02:50:59;7.10;;;5.10;;
18194;SDS011;9223;50.988;3.162;2023-11-21T02:57:02;10.38;;;6.00;;
18194;SDS011;9223;50.988;3.162;2023-11-21T03:03:07;8.48;;;5.10;;
18194;SDS011;9223;50.988;3.162;2023-11-21T03:09:11;9.32;;;5.22;;
18194;SDS011;9223;50.988;3.162;2023-11-21T03:15:15;9.07;;;5.45;;
18194;SDS011;9223;50.988;3.162;2023-11-21T03:21:20;7.80;;;5.00;;
18194;SDS011;9223;50.988;3.162;2023-11-21T03:27:23;7.18;;;4.95;;
18194;SDS011;9223;50.988;3.162;2023-11-21T03:33:27;9.65;;;5.72;;
18194;SDS011;9223;50.988;3.162;2023-11-21T03:39:32;8.43;;;5.05;;
18194;SDS011;9223;50.988;3.162;2023-11-21T03:45:37;8.35;;;5.00;;
18194;SDS011;9223;50.988;3.162;2023-11-21T03:51:42;7.40;;;5.10;;
18194;SDS011;9223;50.988;3.162;2023-11-21T03:57:47;8.52;;;4.88;;
18194;SDS011;9223;50.988;3.162;2023-11-21T04:03:50;6.93;;;4.90;;
18194;SDS011;9223;50.988;3.162;2023-11-21T04:09:54;7.53;;;5.22;;
18194;SDS011;9223;50.988;3.162;2023-11-21T04:15:59;7.55;;;5.63;;
18194;SDS011;9223;50.988;3.162;2023-11-21T04:22:04;6.53;;;4.95;;
18194;SDS011;9223;50.988;3.162;2023-11-21T04:28:08;6.80;;;5.15;;
18194;SDS011;9223;50.988;3.162;2023-11-21T04:34:13;6.30;;;4.57;;
18194;SDS011;9223;50.988;3.162;2023-11-21T04:40:16;5.93;;;4.88;;
18194;SDS011;9223;50.988;3.162;2023-11-21T04:46:22;4.93;;;4.07;;
18194;SDS011;9223;50.988;3.162;2023-11-21T04:52:27;5.35;;;3.70;;
18194;SDS011;9223;50.988;3.162;2023-11-21T04:58:31;3.97;;;3.17;;
18194;SDS011;9223;50.988;3.162;2023-11-21T05:04:34;3.90;;;3.20;;
18194;SDS011;9223;50.988;3.162;2023-11-21T05:10:40;5.82;;;3.25;;
18194;SDS011;9223;50.988;3.162;2023-11-21T05:16:43;5.18;;;3.47;;
18194;SDS011;9223;50.988;3.162;2023-11-21T05:22:47;6.22;;;3.47;;
18194;SDS011;9223;50.988;3.162;2023-11-21T05:28:52;5.00;;;3.90;;
18194;SDS011;9223;50.988;3.162;2023-11-21T05:34:56;6.40;;;3.85;;
18194;SDS011;9223;50.988;3.162;2023-11-21T05:41:00;5.45;;;3.92;;
18194;SDS011;9223;50.988;3.162;2023-11-21T05:47:05;6.28;;;4.22;;
18194;SDS011;9223;50.988;3.162;2023-11-21T05:53:09;6.22;;;4.57;;
18194;SDS011;9223;50.988;3.162;2023-11-21T05:59:13;6.95;;;4.95;;
18194;SDS011;9223;50.988;3.162;2023-11-21T06:05:18;7.53;;;4.57;;
18194;SDS011;9223;50.988;3.162;2023-11-21T06:11:24;8.02;;;4.72;;
18194;SDS011;9223;50.988;3.162;2023-11-21T06:17:27;5.88;;;4.15;;
18194;SDS011;9223;50.988;3.162;2023-11-21T06:23:33;7.30;;;4.72;;
18194;SDS011;9223;50.988;3.162;2023-11-21T06:29:36;9.43;;;5.00;;
18194;SDS011;9223;50.988;3.162;2023-11-21T06:35:39;9.15;;;5.82;;
18194;SDS011;9223;50.988;3.162;2023-11-21T06:41:44;8.57;;;6.00;;
18194;SDS011;9223;50.988;3.162;2023-11-21T06:47:48;9.85;;;6.45;;
18194;SDS011;9223;50.988;3.162;2023-11-21T06:53:52;10.82;;;5.68;;
18194;SDS011;9223;50.988;3.162;2023-11-21T06:59:57;9.05;;;5.43;;
18194;SDS011;9223;50.988;3.162;2023-11-21T07:06:01;8.95;;;5.93;;
18194;SDS011;9223;50.988;3.162;2023-11-21T07:12:05;7.22;;;4.65;;
18194;SDS011;9223;50.988;3.162;2023-11-21T07:18:10;6.35;;;3.63;;
18194;SDS011;9223;50.988;3.162;2023-11-21T07:24:14;5.00;;;3.85;;
18194;SDS011;9223;50.988;3.162;2023-11-21T07:30:18;4.90;;;3.08;;
18194;SDS011;9223;50.988;3.162;2023-11-21T07:36:25;3.65;;;2.92;;
18194;SDS011;9223;50.988;3.162;2023-11-21T07:42:29;3.65;;;2.30;;
18194;SDS011;9223;50.988;3.162;2023-11-21T07:48:32;4.10;;;2.88;;
18194;SDS011;9223;50.988;3.162;2023-11-21T07:54:37;4.95;;;3.10;;
18194;SDS011;9223;50.988;3.162;2023-11-21T08:00:41;5.10;;;3.65;;
18194;SDS011;9223;50.988;3.162;2023-11-21T08:06:45;5.53;;;3.92;;
18194;SDS011;9223;50.988;3.162;2023-11-21T08:12:49;7.65;;;4.65;;
18194;SDS011;9223;50.988;3.162;2023-11-21T08:18:54;5.28;;;3.45;;
18194;SDS011;9223;50.988;3.162;2023-11-21T08:24:57;5.72;;;3.45;;
18194;SDS011;9223;50.988;3.162;2023-11-21T08:31:03;5.55;;;3.70;;
18194;SDS011;9223;50.988;3.162;2023-11-21T08:37:06;4.97;;;3.33;;
18194;SDS011;9223;50.988;3.162;2023-11-21T08:43:10;5.45;;;3.03;;
18194;SDS011;9223;50.988;3.162;2023-11-21T08:49:16;5.07;;;2.95;;
18194;SDS011;9223;50.988;3.162;2023-11-21T08:55:20;4.22;;;2.88;;
18194;SDS011;9223;50.988;3.162;2023-11-21T09:01:24;5.40;;;3.33;;
18194;SDS011;9223;50.988;3.162;2023-11-21T09:07:29;4.13;;;2.38;;
18194;SDS011;9223;50.988;3.162;2023-11-21T09:13:33;3.85;;;2.40;;
18194;SDS011;9223;50.988;3.162;2023-11-21T09:19:37;5.53;;;2.40;;
18194;SDS011;9223;50.988;3.162;2023-11-21T09:25:43;2.55;;;2.33;;
18194;SDS011;9223;50.988;3.162;2023-11-21T09:31:48;5.65;;;2.58;;
18194;SDS011;9223;50.988;3.162;2023-11-21T09:37:52;3.78;;;1.80;;
18194;SDS011;9223;50.988;3.162;2023-11-21T09:43:58;3.15;;;1.52;;
18194;SDS011;9223;50.988;3.162;2023-11-21T09:50:02;3.75;;;1.90;;
18194;SDS011;9223;50.988;3.162;2023-11-21T09:56:06;2.72;;;1.45;;
18194;SDS011;9223;50.988;3.162;2023-11-21T10:02:12;6.03;;;1.52;;
18194;SDS011;9223;50.988;3.162;2023-11-21T10:08:16;5.45;;;1.67;;
18194;SDS011;9223;50.988;3.162;2023-11-21T10:14:19;4.80;;;2.17;;
18194;SDS011;9223;50.988;3.162;2023-11-21T10:20:25;5.25;;;1.60;;
18194;SDS011;9223;50.988;3.162;2023-11-21T10:26:29;3.35;;;2.03;;
18194;SDS011;9223;50.988;3.162;2023-11-21T10:32:44;3.83;;;1.83;;
18194;SDS011;9223;50.988;3.162;2023-11-21T10:38:49;5.30;;;1.92;;
18194;SDS011;9223;50.988;3.162;2023-11-21T10:44:55;5.07;;;2.28;;
18194;SDS011;9223;50.988;3.162;2023-11-21T10:50:59;5.30;;;2.08;;
18194;SDS011;9223;50.988;3.162;2023-11-21T10:57:05;6.45;;;2.40;;
18194;SDS011;9223;50.988;3.162;2023-11-21T11:03:09;5.15;;;2.38;;
18194;SDS011;9223;50.988;3.162;2023-11-21T11:09:17;3.97;;;2.28;;
18194;SDS011;9223;50.988;3.162;2023-11-21T11:15:22;6.95;;;2.85;;
18194;SDS011;9223;50.988;3.162;2023-11-21T11:21:28;9.30;;;2.97;;
18194;SDS011;9223;50.988;3.162;2023-11-21T11:27:37;7.55;;;2.67;;
18194;SDS011;9223;50.988;3.162;2023-11-21T11:33:53;9.32;;;2.53;;
18194;SDS011;9223;50.988;3.162;2023-11-21T11:39:59;7.93;;;2.38;;
18194;SDS011;9223;50.988;3.162;2023-11-21T11:46:03;6.32;;;2.30;;
18194;SDS011;9223;50.988;3.162;2023-11-21T11:58:33;4.47;;;2.40;;
18194;SDS011;9223;50.988;3.162;2023-11-21T12:04:40;8.93;;;3.13;;
18194;SDS011;9223;50.988;3.162;2023-11-21T12:10:44;6.95;;;3.72;;
18194;SDS011;9223;50.988;3.162;2023-11-21T12:16:51;5.15;;;2.17;;
18194;SDS011;9223;50.988;3.162;2023-11-21T12:22:55;4.63;;;1.88;;
18194;SDS011;9223;50.988;3.162;2023-11-21T12:29:00;9.02;;;2.42;;
18194;SDS011;9223;50.988;3.162;2023-11-21T12:35:07;4.25;;;2.35;;
18194;SDS011;9223;50.988;3.162;2023-11-21T12:41:11;6.10;;;2.03;;
18194;SDS011;9223;50.988;3.162;2023-11-21T12:47:16;3.22;;;1.33;;
18194;SDS011;9223;50.988;3.162;2023-11-21T12:53:21;2.95;;;1.20;;
18194;SDS011;9223;50.988;3.162;2023-11-21T12:59:25;4.80;;;1.63;;
18194;SDS011;9223;50.988;3.162;2023-11-21T13:05:29;3.33;;;1.17;;
18194;SDS011;9223;50.988;3.162;2023-11-21T13:11:35;3.25;;;1.20;;
18194;SDS011;9223;50.988;3.162;2023-11-21T13:17:38;3.80;;;1.00;;
18194;SDS011;9223;50.988;3.162;2023-11-21T13:23:42;3.13;;;1.38;;
18194;SDS011;9223;50.988;3.162;2023-11-21T13:29:49;3.53;;;1.27;;
18194;SDS011;9223;50.988;3.162;2023-11-21T13:35:52;3.03;;;0.85;;
18194;SDS011;9223;50.988;3.162;2023-11-21T13:41:58;3.75;;;0.95;;
18194;SDS011;9223;50.988;3.162;2023-11-21T13:48:02;4.57;;;1.65;;
18194;SDS011;9223;50.988;3.162;2023-11-21T13:54:08;2.35;;;0.82;;
18194;SDS011;9223;50.988;3.162;2023-11-21T14:00:12;4.25;;;1.17;;
18194;SDS011;9223;50.988;3.162;2023-11-21T14:06:39;3.75;;;0.98;;
18194;SDS011;9223;50.988;3.162;2023-11-21T14:12:49;3.30;;;1.05;;
18194;SDS011;9223;50.988;3.162;2023-11-21T14:18:53;2.60;;;0.98;;
18194;SDS011;9223;50.988;3.162;2023-11-21T14:25:05;3.42;;;1.23;;
18194;SDS011;9223;50.988;3.162;2023-11-21T14:31:08;1.75;;;1.00;;
18194;SDS011;9223;50.988;3.162;2023-11-21T14:37:15;1.20;;;0.90;;
18194;SDS011;9223;50.988;3.162;2023-11-21T14:43:20;2.28;;;0.88;;
18194;SDS011;9223;50.988;3.162;2023-11-21T14:49:24;2.78;;;0.88;;
18194;SDS011;9223;50.988;3.162;2023-11-21T14:55:29;1.80;;;0.85;;
18194;SDS011;9223;50.988;3.162;2023-11-21T15:01:44;2.85;;;0.95;;
18194;SDS011;9223;50.988;3.162;2023-11-21T15:07:56;1.83;;;1.10;;
18194;SDS011;9223;50.988;3.162;2023-11-21T15:14:14;2.45;;;0.90;;
18194;SDS011;9223;50.988;3.162;2023-11-21T15:20:24;1.98;;;1.08;;
18194;SDS011;9223;50.988;3.162;2023-11-21T15:26:28;1.90;;;1.40;;
18194;SDS011;9223;50.988;3.162;2023-11-21T15:32:32;3.10;;;1.00;;
18194;SDS011;9223;50.988;3.162;2023-11-21T15:38:37;1.70;;;1.05;;
18194;SDS011;9223;50.988;3.162;2023-11-21T15:44:40;1.38;;;0.98;;
18194;SDS011;9223;50.988;3.162;2023-11-21T15:50:44;1.70;;;1.02;;
18194;SDS011;9223;50.988;3.162;2023-11-21T15:56:49;1.50;;;1.00;;
18194;SDS011;9223;50.988;3.162;2023-11-21T16:02:54;1.55;;;1.20;;
18194;SDS011;9223;50.988;3.162;2023-11-21T16:08:59;4.63;;;2.05;;
18194;SDS011;9223;50.988;3.162;2023-11-21T16:15:05;3.53;;;1.88;;
18194;SDS011;9223;50.988;3.162;2023-11-21T16:21:10;4.70;;;2.47;;
18194;SDS011;9223;50.988;3.162;2023-11-21T16:27:15;5.18;;;2.20;;
18194;SDS011;9223;50.988;3.162;2023-11-21T16:33:20;2.67;;;1.75;;
18194;SDS011;9223;50.988;3.162;2023-11-21T16:39:24;4.32;;;2.72;;
18194;SDS011;9223;50.988;3.162;2023-11-21T16:45:29;5.25;;;3.13;;
18194;SDS011;9223;50.988;3.162;2023-11-21T16:51:34;4.88;;;1.90;;
18194;SDS011;9223;50.988;3.162;2023-11-21T16:57:37;7.55;;;3.80;;
18194;SDS011;9223;50.988;3.162;2023-11-21T17:03:41;4.43;;;2.67;;
18194;SDS011;9223;50.988;3.162;2023-11-21T17:09:46;3.15;;;2.70;;
18194;SDS011;9223;50.988;3.162;2023-11-21T17:15:49;4.18;;;3.03;;
18194;SDS011;9223;50.988;3.162;2023-11-21T17:21:53;4.78;;;3.05;;
18194;SDS011;9223;50.988;3.162;2023-11-21T17:27:59;5.90;;;2.55;;
18194;SDS011;9223;50.988;3.162;2023-11-21T17:34:04;6.20;;;2.58;;
18194;SDS011;9223;50.988;3.162;2023-11-21T17:40:08;5.82;;;3.20;;
18194;SDS011;9223;50.988;3.162;2023-11-21T17:46:13;4.70;;;3.45;;
18194;SDS011;9223;50.988;3.162;2023-11-21T17:52:21;7.20;;;3.45;;
18194;SDS011;9223;50.988;3.162;2023-11-21T17:58:25;5.38;;;3.63;;
18194;SDS011;9223;50.988;3.162;2023-11-21T18:04:30;5.88;;;3.95;;
18194;SDS011;9223;50.988;3.162;2023-11-21T18:10:36;4.38;;;3.40;;
18194;SDS011;9223;50.988;3.162;2023-11-21T18:16:40;6.47;;;4.57;;
18194;SDS011;9223;50.988;3.162;2023-11-21T18:22:45;6.43;;;4.85;;
18194;SDS011;9223;50.988;3.162;2023-11-21T18:28:49;6.90;;;5.00;;
18194;SDS011;9223;50.988;3.162;2023-11-21T18:34:53;6.88;;;4.97;;
18194;SDS011;9223;50.988;3.162;2023-11-21T18:40:59;6.22;;;4.68;;
18194;SDS011;9223;50.988;3.162;2023-11-21T18:47:03;7.72;;;5.70;;
18194;SDS011;9223;50.988;3.162;2023-11-21T18:53:07;7.65;;;5.88;;
18194;SDS011;9223;50.988;3.162;2023-11-21T18:59:13;9.98;;;6.15;;
18194;SDS011;9223;50.988;3.162;2023-11-21T19:05:16;9.35;;;6.43;;
18194;SDS011;9223;50.988;3.162;2023-11-21T19:11:21;8.32;;;6.50;;
18194;SDS011;9223;50.988;3.162;2023-11-21T19:17:27;9.30;;;6.93;;
18194;SDS011;9223;50.988;3.162;2023-11-21T19:23:34;8.90;;;6.90;;
18194;SDS011;9223;50.988;3.162;2023-11-21T19:29:37;9.70;;;6.93;;
18194;SDS011;9223;50.988;3.162;2023-11-21T19:35:42;9.48;;;7.28;;
18194;SDS011;9223;50.988;3.162;2023-11-21T19:41:48;12.60;;;7.43;;
18194;SDS011;9223;50.988;3.162;2023-11-21T19:47:52;15.70;;;10.02;;
18194;SDS011;9223;50.988;3.162;2023-11-21T19:53:57;16.92;;;10.77;;
18194;SDS011;9223;50.988;3.162;2023-11-21T20:00:00;14.38;;;9.25;;
18194;SDS011;9223;50.988;3.162;2023-11-21T20:06:09;15.50;;;10.40;;
18194;SDS011;9223;50.988;3.162;2023-11-21T20:12:14;14.80;;;10.07;;
18194;SDS011;9223;50.988;3.162;2023-11-21T20:18:18;16.38;;;10.85;;
18194;SDS011;9223;50.988;3.162;2023-11-21T20:24:21;16.65;;;10.88;;
18194;SDS011;9223;50.988;3.162;2023-11-21T20:30:26;15.65;;;10.43;;
18194;SDS011;9223;50.988;3.162;2023-11-21T20:36:30;16.00;;;9.57;;
18194;SDS011;9223;50.988;3.162;2023-11-21T20:42:34;14.70;;;9.27;;
18194;SDS011;9223;50.988;3.162;2023-11-21T20:48:44;13.43;;;9.10;;
18194;SDS011;9223;50.988;3.162;2023-11-21T20:54:51;14.88;;;8.77;;
18194;SDS011;9223;50.988;3.162;2023-11-21T21:00:55;13.20;;;8.50;;
18194;SDS011;9223;50.988;3.162;2023-11-21T21:07:00;13.57;;;8.50;;
18194;SDS011;9223;50.988;3.162;2023-11-21T21:13:03;11.55;;;7.38;;
18194;SDS011;9223;50.988;3.162;2023-11-21T21:19:07;10.48;;;7.50;;
18194;SDS011;9223;50.988;3.162;2023-11-21T21:25:13;11.52;;;6.88;;
18194;SDS011;9223;50.988;3.162;2023-11-21T21:31:17;10.38;;;6.97;;
18194;SDS011;9223;50.988;3.162;2023-11-21T21:37:20;9.20;;;6.82;;
18194;SDS011;9223;50.988;3.162;2023-11-21T21:43:25;10.07;;;7.22;;
18194;SDS011;9223;50.988;3.162;2023-11-21T21:49:29;8.98;;;6.38;;
18194;SDS011;9223;50.988;3.162;2023-11-21T21:55:33;9.50;;;6.40;;
18194;SDS011;9223;50.988;3.162;2023-11-21T22:01:43;10.18;;;6.53;;
18194;SDS011;9223;50.988;3.162;2023-11-21T22:07:47;9.68;;;6.78;;
18194;SDS011;9223;50.988;3.162;2023-11-21T22:13:50;11.15;;;6.50;;
18194;SDS011;9223;50.988;3.162;2023-11-21T22:19:55;9.85;;;6.93;;
18194;SDS011;9223;50.988;3.162;2023-11-21T22:25:59;10.23;;;6.63;;
18194;SDS011;9223;50.988;3.162;2023-11-21T22:32:03;12.73;;;7.72;;
18194;SDS011;9223;50.988;3.162;2023-11-21T22:38:09;11.18;;;7.28;;
18194;SDS011;9223;50.988;3.162;2023-11-21T22:44:15;12.70;;;7.90;;
18194;SDS011;9223;50.988;3.162;2023-11-21T22:50:19;12.20;;;7.85;;
18194;SDS011;9223;50.988;3.162;2023-11-21T22:56:24;12.93;;;8.07;;
18194;SDS011;9223;50.988;3.162;2023-11-21T23:02:31;11.50;;;7.40;;
18194;SDS011;9223;50.988;3.162;2023-11-21T23:08:34;14.40;;;8.73;;
18194;SDS011;9223;50.988;3.162;2023-11-21T23:14:39;11.85;;;7.70;;
18194;SDS011;9223;50.988;3.162;2023-11-21T23:20:43;12.73;;;7.95;;
18194;SDS011;9223;50.988;3.162;2023-11-21T23:26:47;12.48;;;8.30;;
18194;SDS011;9223;50.988;3.162;2023-11-21T23:32:52;12.20;;;8.45;;
18194;SDS011;9223;50.988;3.162;2023-11-21T23:38:56;14.10;;;8.05;;
18194;SDS011;9223;50.988;3.162;2023-11-21T23:44:59;12.48;;;8.50;;
18194;SDS011;9223;50.988;3.162;2023-11-21T23:51:05;13.23;;;7.85;;
18194;SDS011;9223;50.988;3.162;2023-11-21T23:57:11;12.15;;;8.15;;
